sensor_id;sensor_type;location;lat;lon;timestamp;pressure;altitude;pressure_sealevel;temperature;humidity
59729;BME280;45588;51.598;5.618;2022-09-12T00:01:57;101634.63;;;11.62;100.00
59729;BME280;45588;51.598;5.618;2022-09-12T00:04:22;101627.47;;;11.56;100.00
59729;BME280;45588;51.598;5.618;2022-09-12T00:06:48;101631.78;;;11.54;100.00
59729;BME280;45588;51.598;5.618;2022-09-12T00:09:14;101626.44;;;11.51;100.00
59729;BME280;45588;51.598;5.618;2022-09-12T00:11:42;101624.69;;;11.50;100.00
59729;BME280;45588;51.598;5.618;2022-09-12T00:14:09;101616.72;;;11.45;100.00
59729;BME280;45588;51.598;5.618;2022-09-12T00:16:35;101614.09;;;11.45;100.00
59729;BME280;45588;51.598;5.618;2022-09-12T00:19:03;101620.25;;;11.47;100.00
59729;BME280;45588;51.598;5.618;2022-09-12T00:21:29;101608.81;;;11.44;100.00
59729;BME280;45588;51.598;5.618;2022-09-12T00:23:56;101612.28;;;11.43;100.00
59729;BME280;45588;51.598;5.618;2022-09-12T00:26:22;101613.00;;;11.39;100.00
59729;BME280;45588;51.598;5.618;2022-09-12T00:28:47;101611.16;;;11.35;100.00
59729;BME280;45588;51.598;5.618;2022-09-12T00:31:16;101606.63;;;11.29;100.00
59729;BME280;45588;51.598;5.618;2022-09-12T00:33:42;101610.94;;;11.29;100.00
59729;BME280;45588;51.598;5.618;2022-09-12T00:36:10;101609.13;;;11.26;100.00
59729;BME280;45588;51.598;5.618;2022-09-12T00:38:36;101599.44;;;11.22;100.00
59729;BME280;45588;51.598;5.618;2022-09-12T00:41:16;101589.81;;;11.19;100.00
59729;BME280;45588;51.598;5.618;2022-09-12T00:43:47;101595.03;;;11.19;100.00
59729;BME280;45588;51.598;5.618;2022-09-12T00:49:07;101587.13;;;11.18;100.00
59729;BME280;45588;51.598;5.618;2022-09-12T00:51:36;101589.72;;;11.16;100.00
59729;BME280;45588;51.598;5.618;2022-09-12T00:54:05;101582.56;;;11.11;100.00
59729;BME280;45588;51.598;5.618;2022-09-12T00:56:33;101591.31;;;11.13;100.00
59729;BME280;45588;51.598;5.618;2022-09-12T00:59:05;101586.88;;;11.10;100.00
59729;BME280;45588;51.598;5.618;2022-09-12T01:01:33;101577.31;;;11.09;100.00
59729;BME280;45588;51.598;5.618;2022-09-12T01:04:00;101571.19;;;11.09;100.00
59729;BME280;45588;51.598;5.618;2022-09-12T01:06:40;101565.09;;;11.08;100.00
59729;BME280;45588;51.598;5.618;2022-09-12T01:09:07;101565.06;;;11.07;100.00
59729;BME280;45588;51.598;5.618;2022-09-12T01:11:36;101565.88;;;11.05;100.00
59729;BME280;45588;51.598;5.618;2022-09-12T01:14:02;101564.94;;;11.03;100.00
59729;BME280;45588;51.598;5.618;2022-09-12T01:16:27;101570.81;;;10.96;100.00
59729;BME280;45588;51.598;5.618;2022-09-12T01:19:35;101567.41;;;10.99;100.00
59729;BME280;45588;51.598;5.618;2022-09-12T01:22:27;101568.22;;;10.98;100.00
59729;BME280;45588;51.598;5.618;2022-09-12T01:25:10;101569.03;;;10.95;100.00
59729;BME280;45588;51.598;5.618;2022-09-12T01:33:05;101563.63;;;10.89;100.00
59729;BME280;45588;51.598;5.618;2022-09-12T01:35:45;101561.78;;;10.87;100.00
59729;BME280;45588;51.598;5.618;2022-09-12T01:38:23;101565.22;;;10.86;100.00
59729;BME280;45588;51.598;5.618;2022-09-12T01:40:58;101563.53;;;10.86;100.00
59729;BME280;45588;51.598;5.618;2022-09-12T01:43:35;101561.69;;;10.83;100.00
59729;BME280;45588;51.598;5.618;2022-09-12T01:46:15;101556.50;;;10.83;100.00
59729;BME280;45588;51.598;5.618;2022-09-12T01:48:56;101545.06;;;10.80;100.00
59729;BME280;45588;51.598;5.618;2022-09-12T01:51:29;101548.59;;;10.82;100.00
59729;BME280;45588;51.598;5.618;2022-09-12T01:54:05;101529.00;;;10.68;100.00
59729;BME280;45588;51.598;5.618;2022-09-12T01:56:35;101544.34;;;10.58;100.00
59729;BME280;45588;51.598;5.618;2022-09-12T01:59:08;101539.78;;;10.53;100.00
59729;BME280;45588;51.598;5.618;2022-09-12T02:01:39;101531.06;;;10.51;100.00
59729;BME280;45588;51.598;5.618;2022-09-12T02:04:13;101528.41;;;10.49;100.00
59729;BME280;45588;51.598;5.618;2022-09-12T02:07:06;101528.41;;;10.49;100.00
59729;BME280;45588;51.598;5.618;2022-09-12T02:09:43;101520.59;;;10.49;100.00
59729;BME280;45588;51.598;5.618;2022-09-12T02:12:11;101523.97;;;10.47;100.00
59729;BME280;45588;51.598;5.618;2022-09-12T02:14:44;101523.09;;;10.46;100.00
59729;BME280;45588;51.598;5.618;2022-09-12T02:17:13;101524.13;;;10.51;100.00
59729;BME280;45588;51.598;5.618;2022-09-12T02:19:54;101521.53;;;10.51;100.00
59729;BME280;45588;51.598;5.618;2022-09-12T02:22:21;101512.09;;;10.55;100.00
59729;BME280;45588;51.598;5.618;2022-09-12T02:24:53;101513.91;;;10.57;100.00
59729;BME280;45588;51.598;5.618;2022-09-12T02:27:36;101513.91;;;10.57;100.00
59729;BME280;45588;51.598;5.618;2022-09-12T02:30:04;101512.06;;;10.53;100.00
59729;BME280;45588;51.598;5.618;2022-09-12T02:32:37;101516.44;;;10.54;100.00
59729;BME280;45588;51.598;5.618;2022-09-12T02:35:12;101513.75;;;10.53;100.00
59729;BME280;45588;51.598;5.618;2022-09-12T02:40:18;101514.53;;;10.50;100.00
59729;BME280;45588;51.598;5.618;2022-09-12T02:42:43;101517.09;;;10.49;100.00
59729;BME280;45588;51.598;5.618;2022-09-12T02:45:09;101520.44;;;10.45;100.00
59729;BME280;45588;51.598;5.618;2022-09-12T02:50:13;101515.22;;;10.45;100.00
59729;BME280;45588;51.598;5.618;2022-09-12T02:52:40;101517.88;;;10.46;100.00
59729;BME280;45588;51.598;5.618;2022-09-12T02:55:07;101523.38;;;10.55;100.00
59729;BME280;45588;51.598;5.618;2022-09-12T02:57:32;101513.81;;;10.54;100.00
59729;BME280;45588;51.598;5.618;2022-09-12T02:59:59;101512.84;;;10.51;100.00
59729;BME280;45588;51.598;5.618;2022-09-12T03:02:57;101512.00;;;10.52;100.00
59729;BME280;45588;51.598;5.618;2022-09-12T03:05:31;101510.19;;;10.49;100.00
59729;BME280;45588;51.598;5.618;2022-09-12T03:13:32;101502.28;;;10.46;100.00
59729;BME280;45588;51.598;5.618;2022-09-12T03:16:14;101493.50;;;10.44;100.00
59729;BME280;45588;51.598;5.618;2022-09-12T03:19:05;101495.25;;;10.44;100.00
59729;BME280;45588;51.598;5.618;2022-09-12T03:24:33;101498.50;;;10.38;100.00
59729;BME280;45588;51.598;5.618;2022-09-12T03:27:15;101499.41;;;10.38;100.00
59729;BME280;45588;51.598;5.618;2022-09-12T03:29:42;101491.34;;;10.31;100.00
59729;BME280;45588;51.598;5.618;2022-09-12T03:32:10;101490.47;;;10.32;100.00
59729;BME280;45588;51.598;5.618;2022-09-12T03:34:35;101495.69;;;10.32;100.00
59729;BME280;45588;51.598;5.618;2022-09-12T03:37:01;101488.66;;;10.29;100.00
59729;BME280;45588;51.598;5.618;2022-09-12T03:39:26;101482.69;;;10.32;100.00
59729;BME280;45588;51.598;5.618;2022-09-12T03:41:53;101485.38;;;10.35;100.00
59729;BME280;45588;51.598;5.618;2022-09-12T03:44:18;101484.44;;;10.33;100.00
59729;BME280;45588;51.598;5.618;2022-09-12T03:46:44;101483.66;;;10.35;100.00
59729;BME280;45588;51.598;5.618;2022-09-12T03:49:10;101485.47;;;10.38;100.00
59729;BME280;45588;51.598;5.618;2022-09-12T03:51:36;101489.97;;;10.42;100.00
59729;BME280;45588;51.598;5.618;2022-09-12T03:54:02;101480.50;;;10.44;100.00
59729;BME280;45588;51.598;5.618;2022-09-12T03:56:28;101484.06;;;10.48;100.00
59729;BME280;45588;51.598;5.618;2022-09-12T03:58:53;101479.00;;;10.51;100.00
59729;BME280;45588;51.598;5.618;2022-09-12T04:01:19;101476.50;;;10.55;100.00
59729;BME280;45588;51.598;5.618;2022-09-12T04:03:47;101470.50;;;10.56;100.00
59729;BME280;45588;51.598;5.618;2022-09-12T04:06:15;101471.44;;;10.58;100.00
59729;BME280;45588;51.598;5.618;2022-09-12T04:08:41;101466.22;;;10.58;100.00
59729;BME280;45588;51.598;5.618;2022-09-12T04:11:11;101469.88;;;10.65;100.00
59729;BME280;45588;51.598;5.618;2022-09-12T04:13:38;101474.13;;;10.61;100.00
59729;BME280;45588;51.598;5.618;2022-09-12T04:16:04;101468.06;;;10.63;100.00
59729;BME280;45588;51.598;5.618;2022-09-12T04:18:30;101459.38;;;10.62;100.00
59729;BME280;45588;51.598;5.618;2022-09-12T04:20:56;101467.13;;;10.60;100.00
59729;BME280;45588;51.598;5.618;2022-09-12T04:23:22;101462.84;;;10.63;100.00
59729;BME280;45588;51.598;5.618;2022-09-12T04:25:58;101464.53;;;10.60;100.00
59729;BME280;45588;51.598;5.618;2022-09-12T04:28:24;101461.97;;;10.62;100.00
59729;BME280;45588;51.598;5.618;2022-09-12T04:30:50;101452.44;;;10.63;100.00
59729;BME280;45588;51.598;5.618;2022-09-12T04:33:16;101454.31;;;10.67;100.00
59729;BME280;45588;51.598;5.618;2022-09-12T04:35:41;101466.66;;;10.72;100.00
59729;BME280;45588;51.598;5.618;2022-09-12T04:38:07;101452.75;;;10.72;100.00
59729;BME280;45588;51.598;5.618;2022-09-12T04:40:32;101457.13;;;10.73;100.00
59729;BME280;45588;51.598;5.618;2022-09-12T04:42:58;101454.50;;;10.73;100.00
59729;BME280;45588;51.598;5.618;2022-09-12T04:45:24;101456.28;;;10.74;100.00
59729;BME280;45588;51.598;5.618;2022-09-12T04:47:49;101447.53;;;10.72;100.00
59729;BME280;45588;51.598;5.618;2022-09-12T04:50:14;101451.22;;;10.78;100.00
59729;BME280;45588;51.598;5.618;2022-09-12T04:52:40;101450.38;;;10.79;100.00
59729;BME280;45588;51.598;5.618;2022-09-12T04:55:06;101446.00;;;10.78;100.00
59729;BME280;45588;51.598;5.618;2022-09-12T04:57:32;101443.38;;;10.78;100.00
59729;BME280;45588;51.598;5.618;2022-09-12T04:59:57;101444.44;;;10.83;100.00
59729;BME280;45588;51.598;5.618;2022-09-12T05:02:24;101441.88;;;10.85;100.00
59729;BME280;45588;51.598;5.618;2022-09-12T05:04:49;101442.09;;;10.91;100.00
59729;BME280;45588;51.598;5.618;2022-09-12T05:07:15;101437.66;;;10.89;100.00
59729;BME280;45588;51.598;5.618;2022-09-12T05:09:40;101437.00;;;10.96;100.00
59729;BME280;45588;51.598;5.618;2022-09-12T05:12:06;101440.63;;;11.01;100.00
59729;BME280;45588;51.598;5.618;2022-09-12T05:14:32;101445.09;;;11.05;100.00
59729;BME280;45588;51.598;5.618;2022-09-12T05:16:57;101461.81;;;11.12;100.00
59729;BME280;45588;51.598;5.618;2022-09-12T05:19:26;101459.31;;;11.15;100.00
59729;BME280;45588;51.598;5.618;2022-09-12T05:21:51;101458.56;;;11.19;100.00
59729;BME280;45588;51.598;5.618;2022-09-12T05:24:16;101455.25;;;11.24;100.00
59729;BME280;45588;51.598;5.618;2022-09-12T05:26:41;101448.41;;;11.28;100.00
59729;BME280;45588;51.598;5.618;2022-09-12T05:29:07;101455.50;;;11.34;100.00
59729;BME280;45588;51.598;5.618;2022-09-12T05:31:33;101448.59;;;11.34;100.00
59729;BME280;45588;51.598;5.618;2022-09-12T05:33:59;101456.66;;;11.42;100.00
59729;BME280;45588;51.598;5.618;2022-09-12T05:36:28;101449.88;;;11.48;100.00
59729;BME280;45588;51.598;5.618;2022-09-12T05:38:54;101453.41;;;11.51;100.00
59729;BME280;45588;51.598;5.618;2022-09-12T05:41:22;101456.91;;;11.51;100.00
59729;BME280;45588;51.598;5.618;2022-09-12T05:43:55;101446.47;;;11.51;100.00
59729;BME280;45588;51.598;5.618;2022-09-12T05:46:23;101460.56;;;11.58;100.00
59729;BME280;45588;51.598;5.618;2022-09-12T05:48:49;101452.66;;;11.55;100.00
59729;BME280;45588;51.598;5.618;2022-09-12T05:51:21;101454.63;;;11.62;100.00
59729;BME280;45588;51.598;5.618;2022-09-12T05:53:49;101448.59;;;11.64;100.00
59729;BME280;45588;51.598;5.618;2022-09-12T05:56:17;101450.50;;;11.70;100.00
59729;BME280;45588;51.598;5.618;2022-09-12T05:58:46;101456.66;;;11.72;100.00
59729;BME280;45588;51.598;5.618;2022-09-12T06:01:16;101461.97;;;11.77;100.00
59729;BME280;45588;51.598;5.618;2022-09-12T06:03:50;101463.97;;;11.85;100.00
59729;BME280;45588;51.598;5.618;2022-09-12T06:06:18;101468.47;;;11.89;100.00
59729;BME280;45588;51.598;5.618;2022-09-12T06:08:45;101459.78;;;11.90;100.00
59729;BME280;45588;51.598;5.618;2022-09-12T06:11:17;101467.91;;;12.01;100.00
59729;BME280;45588;51.598;5.618;2022-09-12T06:13:43;101474.06;;;12.03;100.00
59729;BME280;45588;51.598;5.618;2022-09-12T06:16:11;101466.38;;;12.09;100.00
59729;BME280;45588;51.598;5.618;2022-09-12T06:18:37;101475.25;;;12.16;100.00
59729;BME280;45588;51.598;5.618;2022-09-12T06:21:08;101480.50;;;12.16;100.00
59729;BME280;45588;51.598;5.618;2022-09-12T06:23:34;101471.84;;;12.19;100.00
59729;BME280;45588;51.598;5.618;2022-09-12T06:26:00;101475.41;;;12.21;100.00
59729;BME280;45588;51.598;5.618;2022-09-12T06:28:26;101473.78;;;12.26;100.00
59729;BME280;45588;51.598;5.618;2022-09-12T06:30:52;101478.16;;;12.27;100.00
59729;BME280;45588;51.598;5.618;2022-09-12T06:33:20;101474.75;;;12.29;100.00
59729;BME280;45588;51.598;5.618;2022-09-12T06:35:45;101473.72;;;12.24;100.00
59729;BME280;45588;51.598;5.618;2022-09-12T06:38:11;101472.97;;;12.28;100.00
59729;BME280;45588;51.598;5.618;2022-09-12T06:40:43;101465.03;;;12.24;100.00
59729;BME280;45588;51.598;5.618;2022-09-12T06:43:11;101458.91;;;12.23;100.00
59729;BME280;45588;51.598;5.618;2022-09-12T06:45:38;101465.06;;;12.25;100.00
59729;BME280;45588;51.598;5.618;2022-09-12T06:48:03;101459.78;;;12.22;100.00
59729;BME280;45588;51.598;5.618;2022-09-12T06:50:29;101471.13;;;12.24;100.00
59729;BME280;45588;51.598;5.618;2022-09-12T06:52:55;101466.81;;;12.25;100.00
59729;BME280;45588;51.598;5.618;2022-09-12T06:55:20;101466.06;;;12.30;100.00
59729;BME280;45588;51.598;5.618;2022-09-12T06:57:48;101460.16;;;12.38;100.00
59729;BME280;45588;51.598;5.618;2022-09-12T07:00:14;101456.16;;;12.52;100.00
59729;BME280;45588;51.598;5.618;2022-09-12T07:02:39;101460.75;;;12.62;100.00
59729;BME280;45588;51.598;5.618;2022-09-12T07:05:04;101464.66;;;12.80;100.00
59729;BME280;45588;51.598;5.618;2022-09-12T07:07:30;101462.41;;;12.93;100.00
59729;BME280;45588;51.598;5.618;2022-09-12T07:09:58;101455.00;;;13.13;100.00
59729;BME280;45588;51.598;5.618;2022-09-12T07:12:23;101452.88;;;13.33;100.00
59729;BME280;45588;51.598;5.618;2022-09-12T07:14:49;101448.94;;;13.55;100.00
59729;BME280;45588;51.598;5.618;2022-09-12T07:17:14;101450.31;;;13.79;100.00
59729;BME280;45588;51.598;5.618;2022-09-12T07:19:39;101453.31;;;13.99;100.00
59729;BME280;45588;51.598;5.618;2022-09-12T07:22:05;101453.50;;;14.10;100.00
59729;BME280;45588;51.598;5.618;2022-09-12T07:24:30;101451.06;;;14.20;100.00
59729;BME280;45588;51.598;5.618;2022-09-12T07:26:55;101439.81;;;14.26;100.00
59729;BME280;45588;51.598;5.618;2022-09-12T07:29:21;101435.69;;;14.40;100.00
59729;BME280;45588;51.598;5.618;2022-09-12T07:31:47;101436.75;;;14.52;100.00
59729;BME280;45588;51.598;5.618;2022-09-12T07:34:12;101436.84;;;14.56;100.00
59729;BME280;45588;51.598;5.618;2022-09-12T07:36:38;101435.28;;;14.69;100.00
59729;BME280;45588;51.598;5.618;2022-09-12T07:39:03;101440.84;;;14.87;100.00
59729;BME280;45588;51.598;5.618;2022-09-12T07:41:29;101441.06;;;15.03;100.00
59729;BME280;45588;51.598;5.618;2022-09-12T07:43:57;101443.94;;;15.21;100.00
59729;BME280;45588;51.598;5.618;2022-09-12T07:46:24;101449.47;;;15.43;100.00
59729;BME280;45588;51.598;5.618;2022-09-12T07:48:55;101451.41;;;15.57;100.00
59729;BME280;45588;51.598;5.618;2022-09-12T07:51:22;101448.88;;;15.65;100.00
59729;BME280;45588;51.598;5.618;2022-09-12T07:53:48;101451.56;;;15.70;100.00
59729;BME280;45588;51.598;5.618;2022-09-12T07:56:15;101457.06;;;15.90;100.00
59729;BME280;45588;51.598;5.618;2022-09-12T07:58:41;101447.56;;;16.01;100.00
59729;BME280;45588;51.598;5.618;2022-09-12T08:01:12;101451.19;;;16.14;100.00
59729;BME280;45588;51.598;5.618;2022-09-12T08:03:40;101454.00;;;16.31;100.00
59729;BME280;45588;51.598;5.618;2022-09-12T08:06:08;101448.88;;;16.49;100.00
59729;BME280;45588;51.598;5.618;2022-09-12T08:08:34;101459.50;;;16.63;100.00
59729;BME280;45588;51.598;5.618;2022-09-12T08:11:02;101454.34;;;16.77;100.00
59729;BME280;45588;51.598;5.618;2022-09-12T08:13:29;101448.38;;;16.95;100.00
59729;BME280;45588;51.598;5.618;2022-09-12T08:15:59;101455.47;;;17.06;100.00
59729;BME280;45588;51.598;5.618;2022-09-12T08:18:28;101454.66;;;17.17;100.00
59729;BME280;45588;51.598;5.618;2022-09-12T08:21:27;101452.09;;;17.35;100.00
59729;BME280;45588;51.598;5.618;2022-09-12T08:23:54;101451.28;;;17.48;100.00
59729;BME280;45588;51.598;5.618;2022-09-12T08:26:20;101449.59;;;17.57;100.00
59729;BME280;45588;51.598;5.618;2022-09-12T08:28:46;101454.03;;;17.71;100.00
59729;BME280;45588;51.598;5.618;2022-09-12T08:31:17;101456.69;;;17.79;100.00
59729;BME280;45588;51.598;5.618;2022-09-12T08:33:43;101463.78;;;17.92;100.00
59729;BME280;45588;51.598;5.618;2022-09-12T08:36:15;101462.88;;;17.97;100.00
59729;BME280;45588;51.598;5.618;2022-09-12T08:38:43;101462.94;;;18.00;100.00
59729;BME280;45588;51.598;5.618;2022-09-12T08:41:32;101465.56;;;18.07;100.00
59729;BME280;45588;51.598;5.618;2022-09-12T08:52:20;101458.59;;;18.37;100.00
59729;BME280;45588;51.598;5.618;2022-09-12T08:54:47;101463.88;;;18.48;100.00
59729;BME280;45588;51.598;5.618;2022-09-12T08:57:14;101462.97;;;18.61;100.00
59729;BME280;45588;51.598;5.618;2022-09-12T08:59:41;101456.81;;;18.74;100.00
59729;BME280;45588;51.598;5.618;2022-09-12T09:08:24;101447.09;;;19.12;100.00
59729;BME280;45588;51.598;5.618;2022-09-12T09:16:55;101447.84;;;19.49;100.00
59729;BME280;45588;51.598;5.618;2022-09-12T09:19:28;101437.25;;;19.55;100.00
59729;BME280;45588;51.598;5.618;2022-09-12T09:21:59;101446.94;;;19.69;100.00
59729;BME280;45588;51.598;5.618;2022-09-12T09:24:32;101440.72;;;19.79;100.00
59729;BME280;45588;51.598;5.618;2022-09-12T09:27:02;101445.91;;;19.94;100.00
59729;BME280;45588;51.598;5.618;2022-09-12T09:29:41;101443.13;;;20.14;100.00
59729;BME280;45588;51.598;5.618;2022-09-12T09:32:15;101440.34;;;20.34;100.00
59729;BME280;45588;51.598;5.618;2022-09-12T09:34:41;101427.16;;;20.31;100.00
59729;BME280;45588;51.598;5.618;2022-09-12T09:44:55;101420.63;;;20.72;100.00
59729;BME280;45588;51.598;5.618;2022-09-12T09:47:21;101423.09;;;20.89;100.00
59729;BME280;45588;51.598;5.618;2022-09-12T09:49:47;101421.22;;;21.00;100.00
59729;BME280;45588;51.598;5.618;2022-09-12T09:52:22;101420.22;;;21.09;100.00
59729;BME280;45588;51.598;5.618;2022-09-12T09:54:55;101412.28;;;21.09;100.00
59729;BME280;45588;51.598;5.618;2022-09-12T10:05:34;101394.31;;;21.35;100.00
59729;BME280;45588;51.598;5.618;2022-09-12T10:08:00;101388.09;;;21.36;100.00
59729;BME280;45588;51.598;5.618;2022-09-12T10:10:27;101388.84;;;21.49;100.00
59729;BME280;45588;51.598;5.618;2022-09-12T10:13:06;101381.69;;;21.56;100.00
59729;BME280;45588;51.598;5.618;2022-09-12T10:15:33;101379.00;;;21.60;100.00
59729;BME280;45588;51.598;5.618;2022-09-12T10:17:58;101382.22;;;21.81;100.00
59729;BME280;45588;51.598;5.618;2022-09-12T10:23:00;101377.84;;;21.78;100.00
59729;BME280;45588;51.598;5.618;2022-09-12T10:25:26;101371.84;;;21.67;99.46
59729;BME280;45588;51.598;5.618;2022-09-12T10:27:56;101372.75;;;21.65;100.00
59729;BME280;45588;51.598;5.618;2022-09-12T10:30:22;101370.66;;;21.87;96.75
59729;BME280;45588;51.598;5.618;2022-09-12T10:32:53;101367.06;;;21.91;94.28
59729;BME280;45588;51.598;5.618;2022-09-12T10:35:22;101360.81;;;21.95;100.00
59729;BME280;45588;51.598;5.618;2022-09-12T10:40:23;101365.34;;;21.87;100.00
59729;BME280;45588;51.598;5.618;2022-09-12T10:42:52;101354.59;;;21.94;100.00
59729;BME280;45588;51.598;5.618;2022-09-12T10:45:20;101350.94;;;22.03;99.23
59729;BME280;45588;51.598;5.618;2022-09-12T10:47:47;101341.13;;;22.08;95.91
59729;BME280;45588;51.598;5.618;2022-09-12T10:50:31;101341.84;;;22.19;98.58
59729;BME280;45588;51.598;5.618;2022-09-12T10:53:31;101332.88;;;22.28;93.08
59729;BME280;45588;51.598;5.618;2022-09-12T10:56:06;101338.31;;;22.20;90.75
59729;BME280;45588;51.598;5.618;2022-09-12T11:01:32;101338.44;;;22.11;92.30
59729;BME280;45588;51.598;5.618;2022-09-12T11:15:40;101316.28;;;22.63;93.65
59729;BME280;45588;51.598;5.618;2022-09-12T11:18:20;101310.69;;;22.77;92.46
59729;BME280;45588;51.598;5.618;2022-09-12T11:21:15;101310.47;;;22.88;92.99
59729;BME280;45588;51.598;5.618;2022-09-12T11:30:06;101298.16;;;22.84;91.31
59729;BME280;45588;51.598;5.618;2022-09-12T11:32:45;101304.25;;;22.89;88.47
59729;BME280;45588;51.598;5.618;2022-09-12T11:35:29;101302.06;;;23.11;91.93
59729;BME280;45588;51.598;5.618;2022-09-12T11:40:28;101302.34;;;22.97;92.31
59729;BME280;45588;51.598;5.618;2022-09-12T11:43:00;101297.81;;;23.02;89.39
59729;BME280;45588;51.598;5.618;2022-09-12T11:45:40;101300.22;;;23.15;86.87
59729;BME280;45588;51.598;5.618;2022-09-12T11:48:11;101303.97;;;23.04;83.21
59729;BME280;45588;51.598;5.618;2022-09-12T11:50:37;101299.72;;;22.96;81.74
59729;BME280;45588;51.598;5.618;2022-09-12T11:53:20;101306.47;;;23.10;85.45
59729;BME280;45588;51.598;5.618;2022-09-12T11:55:58;101301.25;;;23.07;84.77
59729;BME280;45588;51.598;5.618;2022-09-12T11:58:26;101305.91;;;22.96;83.28
59729;BME280;45588;51.598;5.618;2022-09-12T12:00:56;101311.88;;;23.07;85.55
59729;BME280;45588;51.598;5.618;2022-09-12T12:03:30;101307.47;;;23.06;79.62
59729;BME280;45588;51.598;5.618;2022-09-12T12:06:01;101305.97;;;22.93;79.46
59729;BME280;45588;51.598;5.618;2022-09-12T12:08:37;101305.78;;;23.02;82.14
59729;BME280;45588;51.598;5.618;2022-09-12T12:11:04;101298.47;;;23.14;79.48
59729;BME280;45588;51.598;5.618;2022-09-12T12:13:39;101295.84;;;23.10;78.56
59729;BME280;45588;51.598;5.618;2022-09-12T12:16:17;101293.94;;;23.17;78.25
59729;BME280;45588;51.598;5.618;2022-09-12T12:18:53;101288.47;;;23.23;81.36
59729;BME280;45588;51.598;5.618;2022-09-12T12:34:41;101279.66;;;23.60;77.78
59729;BME280;45588;51.598;5.618;2022-09-12T12:47:45;101276.00;;;23.28;76.25
59729;BME280;45588;51.598;5.618;2022-09-12T12:50:21;101277.75;;;23.28;74.48
59729;BME280;45588;51.598;5.618;2022-09-12T12:53:02;101267.88;;;23.33;78.23
59729;BME280;45588;51.598;5.618;2022-09-12T12:55:37;101259.22;;;23.25;76.33
59729;BME280;45588;51.598;5.618;2022-09-12T13:00:44;101249.38;;;23.30;77.18
59729;BME280;45588;51.598;5.618;2022-09-12T13:03:26;101243.34;;;23.22;75.85
59729;BME280;45588;51.598;5.618;2022-09-12T13:06:00;101236.47;;;23.13;76.50
59729;BME280;45588;51.598;5.618;2022-09-12T13:08:31;101238.06;;;23.20;75.92
59729;BME280;45588;51.598;5.618;2022-09-12T13:11:07;101242.63;;;23.15;76.11
59729;BME280;45588;51.598;5.618;2022-09-12T13:13:37;101233.00;;;23.11;76.17
59729;BME280;45588;51.598;5.618;2022-09-12T13:16:03;101221.41;;;23.14;76.54
59729;BME280;45588;51.598;5.618;2022-09-12T13:18:44;101222.75;;;23.31;79.14
59729;BME280;45588;51.598;5.618;2022-09-12T13:21:14;101216.22;;;23.46;79.57
59729;BME280;45588;51.598;5.618;2022-09-12T13:23:41;101220.91;;;23.35;76.37
59729;BME280;45588;51.598;5.618;2022-09-12T13:26:21;101212.06;;;23.33;80.02
59729;BME280;45588;51.598;5.618;2022-09-12T13:28:46;101210.44;;;23.27;75.61
59729;BME280;45588;51.598;5.618;2022-09-12T13:31:24;101206.72;;;23.36;76.31
59729;BME280;45588;51.598;5.618;2022-09-12T13:33:57;101209.19;;;23.44;78.54
59729;BME280;45588;51.598;5.618;2022-09-12T13:39:37;101201.16;;;23.45;76.77
59729;BME280;45588;51.598;5.618;2022-09-12T13:45:12;101195.88;;;23.44;76.30
59729;BME280;45588;51.598;5.618;2022-09-12T13:47:44;101193.03;;;23.51;77.07
59729;BME280;45588;51.598;5.618;2022-09-12T13:50:14;101185.38;;;23.73;80.69
59729;BME280;45588;51.598;5.618;2022-09-12T13:52:45;101193.81;;;23.55;78.86
59729;BME280;45588;51.598;5.618;2022-09-12T13:55:20;101191.63;;;23.72;77.64
59729;BME280;45588;51.598;5.618;2022-09-12T13:57:55;101192.13;;;23.51;78.55
59729;BME280;45588;51.598;5.618;2022-09-12T14:00:22;101180.94;;;23.38;76.37
59729;BME280;45588;51.598;5.618;2022-09-12T14:02:48;101180.13;;;23.36;76.89
59729;BME280;45588;51.598;5.618;2022-09-12T14:05:21;101181.94;;;23.34;75.43
59729;BME280;45588;51.598;5.618;2022-09-12T14:07:58;101173.09;;;23.33;76.45
59729;BME280;45588;51.598;5.618;2022-09-12T14:10:36;101168.28;;;23.48;78.51
59729;BME280;45588;51.598;5.618;2022-09-12T14:13:04;101179.53;;;23.59;71.80
59729;BME280;45588;51.598;5.618;2022-09-12T14:15:35;101160.28;;;23.49;74.47
59729;BME280;45588;51.598;5.618;2022-09-12T14:18:03;101155.94;;;23.45;76.08
59729;BME280;45588;51.598;5.618;2022-09-12T14:20:30;101154.53;;;23.66;75.08
59729;BME280;45588;51.598;5.618;2022-09-12T14:22:59;101149.56;;;23.52;74.38
59729;BME280;45588;51.598;5.618;2022-09-12T14:25:25;101158.78;;;23.39;74.80
59729;BME280;45588;51.598;5.618;2022-09-12T14:27:55;101154.31;;;23.41;74.05
59729;BME280;45588;51.598;5.618;2022-09-12T14:30:25;101154.50;;;23.33;75.58
59729;BME280;45588;51.598;5.618;2022-09-12T14:35:35;101154.81;;;23.20;76.22
59729;BME280;45588;51.598;5.618;2022-09-12T14:38:07;101153.19;;;23.14;76.55
59729;BME280;45588;51.598;5.618;2022-09-12T14:40:49;101149.38;;;23.26;77.79
59729;BME280;45588;51.598;5.618;2022-09-12T14:43:29;101138.56;;;23.32;74.78
59729;BME280;45588;51.598;5.618;2022-09-12T14:46:06;101141.97;;;23.39;72.35
59729;BME280;45588;51.598;5.618;2022-09-12T14:48:54;101128.50;;;23.45;71.36
59729;BME280;45588;51.598;5.618;2022-09-12T14:51:27;101123.63;;;23.62;71.33
59729;BME280;45588;51.598;5.618;2022-09-12T14:53:55;101116.75;;;23.53;70.11
59729;BME280;45588;51.598;5.618;2022-09-12T14:56:21;101113.22;;;23.53;71.47
59729;BME280;45588;51.598;5.618;2022-09-12T14:58:47;101108.94;;;23.47;72.29
59729;BME280;45588;51.598;5.618;2022-09-12T15:06:29;101115.00;;;23.52;71.89